Station: EBSP - 18/02/2019 04:51Z (il y a 29 minutes)
EBSP 180450Z AUTO 16012KT CAVOK 07/M02 Q1019
Vent du 160º - 12 kt
Visibilité > 10 km et plafond haut ou pas de nuages significatifs
Température: +07ºC - Point de rosée: -02ºC - QNH: 1019 hPa